Time;durP1;ratioP1;P1;durP2;ratioP2;P2;SDS_P1;SDS_P2;PMS_P1;PMS_P2;Temp;Humidity;BMP_temperature;BMP_pressure;BME280_temperature;BME280_humidity;BME280_pressure;Samples;Min_cycle;Max_cycle;Signal;HPM_P1;HPM_P2
2022/08/13 00:01:53;;;;;;;4.47;3.57;;;18.00;99.90;17.40;101071;;;;576967;248;24092;-78
2022/08/13 00:04:21;;;;;;;3.33;3.07;;;18.00;99.90;17.40;101070;;;;568080;249;24180;-79
2022/08/13 00:07:08;;;;;;;7.33;3.37;;;18.00;99.90;17.40;101066;;;;568244;247;24168;-79
2022/08/13 00:09:40;;;;;;;7.50;3.47;;;18.00;99.90;17.40;101065;;;;576591;249;24162;-77
2022/08/13 00:14:57;;;;;;;3.40;3.10;;;18.00;99.90;17.50;101064;;;;574715;244;24112;-78
2022/08/13 00:17:25;;;;;;;3.30;3.07;;;18.00;99.90;17.50;101050;;;;568043;249;24161;-77
2022/08/13 00:19:53;;;;;;;5.53;3.13;;;18.10;99.90;17.50;101060;;;;567891;249;24139;-77
2022/08/13 00:22:25;;;;;;;7.67;3.70;;;18.10;99.90;17.50;101063;;;;576625;247;24099;-79
2022/08/13 00:24:50;;;;;;;6.73;3.60;;;18.10;99.90;17.50;101062;;;;567836;249;24136;-78
2022/08/13 00:27:19;;;;;;;5.07;3.47;;;18.10;99.90;17.60;101062;;;;567931;249;24134;-78
2022/08/13 00:29:46;;;;;;;3.93;3.53;;;18.10;99.90;17.60;101059;;;;568048;249;24076;-78
2022/08/13 00:32:16;;;;;;;3.77;3.47;;;18.20;99.90;17.60;101056;;;;568114;249;24117;-78
2022/08/13 00:34:43;;;;;;;3.70;3.27;;;18.20;99.90;17.70;101050;;;;568057;249;24111;-79
2022/08/13 00:37:10;;;;;;;4.40;4.03;;;18.30;99.90;17.70;101056;;;;567997;249;24244;-78
2022/08/13 00:39:37;;;;;;;3.80;3.50;;;18.30;99.90;17.70;101048;;;;576655;248;24123;-78
2022/08/13 00:42:08;;;;;;;6.27;3.40;;;18.30;99.90;17.80;101050;;;;568121;249;24178;-77
2022/08/13 00:44:33;;;;;;;6.30;3.23;;;18.30;99.90;17.80;101051;;;;576887;247;24111;-77
2022/08/13 00:49:48;;;;;;;4.23;3.10;;;18.40;99.90;17.80;101054;;;;576295;248;24093;-78
2022/08/13 00:52:17;;;;;;;4.70;3.90;;;18.40;99.90;17.80;101049;;;;567329;248;24110;-77
2022/08/13 00:54:44;;;;;;;5.00;3.80;;;18.40;99.90;17.90;101043;;;;576525;247;24085;-79
2022/08/13 00:57:12;;;;;;;3.67;3.37;;;18.40;99.90;17.90;101048;;;;576028;247;24130;-79
2022/08/13 00:59:39;;;;;;;3.17;2.80;;;18.40;99.90;17.90;101041;;;;567774;249;24119;-77
2022/08/13 01:02:11;;;;;;;6.10;3.33;;;18.40;99.90;17.80;101044;;;;567444;249;24139;-78
2022/08/13 01:04:35;;;;;;;4.23;3.80;;;18.40;99.90;17.80;101042;;;;576243;247;24174;-79
2022/08/13 01:07:08;;;;;;;5.10;3.87;;;18.40;99.90;17.80;101039;;;;567414;248;24098;-76
2022/08/13 01:09:32;;;;;;;5.13;3.37;;;18.40;99.90;17.80;101038;;;;567201;247;24129;-78
2022/08/13 01:12:00;;;;;;;3.63;3.40;;;18.40;99.90;17.80;101030;;;;568858;248;24083;-78
2022/08/13 01:14:32;;;;;;;4.90;3.40;;;18.30;99.90;17.70;101038;;;;564560;249;24105;-77
2022/08/13 01:17:05;;;;;;;3.83;3.27;;;18.30;99.90;17.70;101032;;;;577100;248;24094;-78
2022/08/13 01:19:30;;;;;;;5.33;3.50;;;18.30;99.90;17.70;101036;;;;568012;249;24135;-78
2022/08/13 01:21:57;;;;;;;3.37;3.07;;;18.30;99.90;17.60;101039;;;;576462;248;24177;-78
2022/08/13 01:24:25;;;;;;;3.50;3.23;;;18.20;99.90;17.60;101035;;;;565791;248;24153;-79
2022/08/13 01:26:54;;;;;;;8.50;5.33;;;18.10;99.90;17.60;101038;;;;567890;249;24149;-79
2022/08/13 01:29:25;;;;;;;5.87;4.00;;;18.10;99.90;17.60;101030;;;;576399;243;24144;-79
2022/08/13 01:31:51;;;;;;;4.07;3.77;;;18.10;99.90;17.60;101020;;;;567475;247;24098;-77
2022/08/13 01:34:18;;;;;;;6.37;3.50;;;18.10;99.90;17.60;101017;;;;563926;249;24122;-77
2022/08/13 01:36:49;;;;;;;6.40;5.57;;;18.10;99.90;17.60;101021;;;;576219;248;24110;-77
2022/08/13 01:39:17;;;;;;;11.57;7.30;;;18.10;99.90;17.60;101013;;;;567611;249;24095;-78
2022/08/13 01:41:44;;;;;;;4.77;4.27;;;18.10;99.90;17.60;101017;;;;576333;247;24081;-78
2022/08/13 01:44:14;;;;;;;3.87;3.50;;;18.10;99.90;17.60;101013;;;;567633;249;24241;-78
2022/08/13 01:52:14;;;;;;;5.00;3.63;;;18.10;99.90;17.60;101010;;;;576027;247;25268;-77
2022/08/13 01:54:45;;;;;;;7.80;4.33;;;18.20;99.90;17.60;101014;;;;576376;247;24112;-78
2022/08/13 01:57:11;;;;;;;6.10;3.47;;;18.20;99.90;17.60;101014;;;;567514;247;24143;-79
2022/08/13 01:59:41;;;;;;;5.43;3.97;;;18.20;99.90;17.60;101014;;;;575856;248;24171;-79
2022/08/13 02:02:08;;;;;;;4.97;3.70;;;18.20;99.90;17.60;101017;;;;567292;249;24125;-78
2022/08/13 02:04:34;;;;;;;6.50;3.53;;;18.20;99.90;17.60;101025;;;;576388;249;24123;-78
2022/08/13 02:07:02;;;;;;;4.70;3.50;;;18.20;99.90;17.60;101021;;;;567758;249;24095;-78
2022/08/13 02:09:33;;;;;;;5.83;4.10;;;18.10;99.90;17.60;101019;;;;567376;248;24113;-78
2022/08/13 02:11:58;;;;;;;5.83;3.57;;;18.10;99.90;17.60;101014;;;;563479;249;24191;-77
2022/08/13 02:14:30;;;;;;;5.37;3.50;;;18.10;99.90;17.50;101019;;;;567516;249;24090;-78
2022/08/13 02:16:58;;;;;;;7.30;3.90;;;18.10;99.90;17.50;101019;;;;576200;248;24111;-78
2022/08/13 02:19:25;;;;;;;4.03;3.67;;;18.10;99.90;17.50;101011;;;;567771;249;24088;-78
2022/08/13 02:21:51;;;;;;;5.20;3.80;;;18.10;99.90;17.50;100999;;;;577628;247;24140;-78
2022/08/13 02:24:19;;;;;;;7.97;3.77;;;18.00;99.90;17.50;101002;;;;564841;248;24135;-78
2022/08/13 02:26:50;;;;;;;4.47;3.60;;;18.00;99.90;17.50;101005;;;;568271;249;24104;-78
2022/08/13 02:29:15;;;;;;;5.37;3.60;;;18.00;99.90;17.50;100999;;;;576590;248;24135;-78
2022/08/13 02:31:43;;;;;;;6.17;4.10;;;18.00;99.90;17.50;100996;;;;575826;244;24095;-80
2022/08/13 02:34:14;;;;;;;5.37;3.43;;;18.00;99.90;17.50;100992;;;;576943;247;24217;-80
2022/08/13 02:36:40;;;;;;;5.30;3.83;;;18.00;99.90;17.40;100994;;;;565760;249;24094;-77
2022/08/13 02:39:06;;;;;;;3.77;3.47;;;18.00;99.90;17.40;101001;;;;565724;249;24099;-77
2022/08/13 02:41:43;;;;;;;6.07;3.60;;;18.00;99.90;17.40;100989;;;;565372;249;24205;-79
2022/08/13 02:44:11;;;;;;;4.10;3.70;;;18.00;99.90;17.40;100993;;;;567670;249;24110;-79
2022/08/13 02:46:43;;;;;;;6.53;3.47;;;17.90;99.90;17.40;100996;;;;565192;249;24170;-77
2022/08/13 02:49:08;;;;;;;7.33;3.40;;;17.90;99.90;17.40;101001;;;;575991;248;24136;-79
2022/08/13 02:51:38;;;;;;;6.37;3.50;;;17.90;99.90;17.40;100996;;;;575338;244;24083;-79
2022/08/13 02:54:07;;;;;;;5.80;3.80;;;17.90;99.90;17.40;100997;;;;567738;248;24127;-79
2022/08/13 02:56:35;;;;;;;3.87;3.37;;;17.90;99.90;17.30;100992;;;;573909;249;24129;-79
2022/08/13 02:58:59;;;;;;;3.70;3.40;;;17.90;99.90;17.30;100999;;;;575488;248;24142;-81
2022/08/13 03:01:27;;;;;;;5.70;3.43;;;17.90;99.90;17.40;100991;;;;567450;249;24079;-79
2022/08/13 03:03:55;;;;;;;4.07;2.90;;;17.90;99.90;17.30;100985;;;;575854;243;24185;-80
2022/08/13 03:06:24;;;;;;;3.87;3.13;;;17.90;99.90;17.30;100981;;;;576485;247;24200;-79
2022/08/13 03:08:51;;;;;;;5.27;2.93;;;17.90;99.90;17.30;100980;;;;565246;249;24136;-78
2022/08/13 03:11:23;;;;;;;5.73;3.70;;;17.90;99.90;17.30;100982;;;;576584;243;24165;-77
2022/08/13 03:13:53;;;;;;;7.03;3.40;;;17.80;99.90;17.30;100974;;;;565362;249;24170;-79
2022/08/13 03:16:22;;;;;;;3.77;3.47;;;17.90;99.90;17.40;100973;;;;575904;249;24102;-79
2022/08/13 03:18:53;;;;;;;3.47;3.23;;;17.90;99.90;17.40;100968;;;;576368;248;24141;-79
2022/08/13 03:21:18;;;;;;;3.47;2.73;;;17.90;99.90;17.40;100963;;;;563886;249;24080;-79
2022/08/13 03:23:46;;;;;;;6.37;2.87;;;18.00;99.90;17.50;100960;;;;576060;249;24130;-80
2022/08/13 03:26:16;;;;;;;3.03;2.83;;;18.00;99.90;17.50;100960;;;;563558;249;24105;-80
2022/08/13 03:28:41;;;;;;;8.73;2.90;;;18.10;99.90;17.60;100966;;;;567160;249;24174;-79
2022/08/13 03:31:09;;;;;;;4.93;3.20;;;18.10;99.90;17.70;100966;;;;567256;249;24110;-79
2022/08/13 03:33:38;;;;;;;4.23;3.00;;;18.30;99.90;17.80;100962;;;;568180;248;24089;-80
2022/08/13 03:36:07;;;;;;;4.63;2.83;;;18.30;99.90;17.80;100968;;;;568587;248;24154;-79
2022/08/13 03:38:36;;;;;;;6.13;2.83;;;18.40;99.90;17.90;100979;;;;568426;249;24115;-77
2022/08/13 03:41:11;;;;;;;3.40;3.10;;;18.40;99.90;17.90;100971;;;;568162;249;24075;-78
2022/08/13 03:43:33;;;;;;;11.57;2.50;;;18.40;99.90;18.00;100966;;;;567863;249;24165;-77
2022/08/13 03:46:01;;;;;;;2.80;2.63;;;18.50;99.90;18.10;100955;;;;567924;248;24126;-78
2022/08/13 03:48:29;;;;;;;5.13;2.90;;;18.60;99.90;18.10;100958;;;;567889;247;24103;-77
2022/08/13 03:51:00;;;;;;;5.57;2.87;;;18.70;99.90;18.20;100962;;;;567769;249;23168;-78
2022/08/13 03:53:25;;;;;;;3.07;2.77;;;18.70;99.90;18.30;100969;;;;567644;249;24084;-77
2022/08/13 03:55:58;;;;;;;3.50;3.20;;;18.90;99.90;18.40;100957;;;;567534;249;24101;-77
2022/08/13 03:58:22;;;;;;;4.47;2.80;;;18.90;99.90;18.50;100958;;;;567671;248;24154;-77
2022/08/13 04:00:50;;;;;;;4.67;2.77;;;19.10;99.90;18.70;100970;;;;567683;243;24265;-78
2022/08/13 04:03:23;;;;;;;7.05;3.45;;;19.20;99.90;18.90;100970;;;;562605;249;35331;-77
2022/08/13 04:06:00;;;;;;;3.47;2.50;;;19.40;99.90;19.00;100971;;;;567699;249;25190;-77
2022/08/13 04:08:28;;;;;;;4.93;2.80;;;19.50;99.90;19.20;100968;;;;576139;247;24122;-77
2022/08/13 04:10:56;;;;;;;3.37;2.73;;;19.90;99.90;19.40;100967;;;;575475;248;24125;-77
2022/08/13 04:13:24;;;;;;;3.03;2.53;;;19.90;99.90;19.60;100957;;;;563568;249;24117;-78
2022/08/13 04:15:52;;;;;;;2.70;2.50;;;20.10;99.90;19.80;100965;;;;576130;248;23155;-77
2022/08/13 04:18:20;;;;;;;5.03;2.97;;;20.30;99.90;20.00;100960;;;;571820;247;35355;-78
2022/08/13 04:20:54;;;;;;;3.20;2.93;;;20.50;99.90;20.20;100958;;;;576804;247;24153;-78
2022/08/13 04:23:19;;;;;;;3.57;3.27;;;20.70;99.90;20.50;100958;;;;568001;246;24102;-79
2022/08/13 04:25:47;;;;;;;5.17;3.27;;;21.00;99.90;21.30;100955;;;;563599;249;23109;-78
2022/08/13 04:28:15;;;;;;;2.60;2.40;;;21.70;99.90;22.40;100960;;;;573601;249;24091;-78
2022/08/13 04:30:43;;;;;;;4.97;2.50;;;22.80;99.90;23.60;100959;;;;563536;249;24208;-78
2022/08/13 04:33:14;;;;;;;2.90;2.70;;;24.00;99.90;24.40;100955;;;;567582;249;24137;-78
2022/08/13 04:35:46;;;;;;;4.03;2.67;;;25.50;99.90;24.90;100954;;;;567690;249;24089;-78
2022/08/13 04:38:10;;;;;;;4.73;3.20;;;25.40;99.90;25.70;100955;;;;568383;252;23158;-78
2022/08/13 04:40:38;;;;;;;4.13;2.47;;;26.30;99.90;26.40;100955;;;;569014;252;24119;-78
2022/08/13 04:43:06;;;;;;;4.53;2.70;;;27.00;99.90;27.00;100950;;;;568778;251;23124;-77
2022/08/13 04:45:34;;;;;;;9.73;2.90;;;27.70;99.90;27.80;100958;;;;569966;250;23197;-78
2022/08/13 04:48:03;;;;;;;4.70;2.47;;;28.40;99.90;28.40;100958;;;;575833;248;24080;-77
2022/08/13 04:50:34;;;;;;;6.13;2.20;;;29.10;99.90;28.80;100948;;;;575940;244;23056;-78
2022/08/13 04:52:57;;;;;;;4.97;2.53;;;29.60;99.90;29.10;100945;;;;579053;244;24126;-78
2022/08/13 04:55:25;;;;;;;5.03;3.20;;;29.90;99.90;29.40;100938;;;;578732;244;23099;-78
2022/08/13 04:57:53;;;;;;;3.00;2.25;;;30.20;99.90;29.60;100937;;;;578848;244;23131;-78
2022/08/13 05:00:24;;;;;;;3.45;2.92;;;30.80;99.80;30.10;100949;;;;585592;244;24076;-78
2022/08/13 05:02:54;;;;;;;3.05;2.72;;;31.30;98.40;30.60;100948;;;;587667;243;23093;-78
2022/08/13 05:05:21;;;;;;;5.00;2.35;;;31.30;98.40;31.20;100954;;;;578431;244;23102;-78
2022/08/13 05:07:50;;;;;;;3.55;2.60;;;31.80;96.00;31.50;100958;;;;585650;244;23117;-78
2022/08/13 05:10:14;;;;;;;6.72;3.55;;;32.20;94.60;31.80;100962;;;;575433;244;23119;-78
2022/08/13 05:12:46;;;;;;;4.03;2.35;;;32.50;93.10;32.20;100965;;;;575449;244;23107;-79
2022/08/13 05:15:12;;;;;;;4.70;2.45;;;32.90;91.50;32.50;100965;;;;587018;244;23066;-79
2022/08/13 05:17:39;;;;;;;3.53;2.62;;;33.50;88.90;32.90;100963;;;;575033;244;24079;-79
2022/08/13 05:20:13;;;;;;;4.95;2.60;;;33.90;87.00;33.30;100971;;;;579045;245;23111;-79
2022/08/13 05:22:36;;;;;;;3.60;2.50;;;33.90;86.90;34.00;100980;;;;567026;252;23125;-79
2022/08/13 05:25:07;;;;;;;3.10;2.05;;;34.60;83.40;34.50;100978;;;;550903;252;23127;-79
2022/08/13 05:27:32;;;;;;;2.45;2.00;;;35.10;80.10;35.10;100984;;;;573217;248;23113;-80
2022/08/13 05:30:00;;;;;;;4.10;2.08;;;36.00;73.90;35.30;100984;;;;560548;251;23124;-79
2022/08/13 05:32:29;;;;;;;5.43;2.10;;;36.20;72.40;35.60;100989;;;;567576;249;24158;-82
2022/08/13 05:34:59;;;;;;;2.90;1.98;;;36.60;70.60;36.00;100993;;;;557594;248;23215;-81
2022/08/13 05:37:25;;;;;;;4.85;2.70;;;36.60;69.90;36.20;101001;;;;572094;248;35300;-81
2022/08/13 05:39:53;;;;;;;5.90;2.00;;;36.80;68.00;36.50;100986;;;;577068;248;23109;-79
2022/08/13 05:42:21;;;;;;;3.60;2.12;;;37.10;66.30;36.90;100999;;;;576891;248;23100;-79
2022/08/13 05:44:49;;;;;;;5.50;2.47;;;37.40;65.30;37.20;100997;;;;577032;248;23150;-79
2022/08/13 05:47:17;;;;;;;2.97;2.35;;;37.80;64.40;37.60;100995;;;;576972;247;23145;-78
2022/08/13 05:49:45;;;;;;;1.95;1.73;;;38.20;62.90;38.30;100994;;;;577158;248;23096;-81
2022/08/13 05:52:13;;;;;;;4.85;2.10;;;38.60;60.50;38.30;101002;;;;558051;253;23075;-81
2022/08/13 05:54:42;;;;;;;7.62;2.15;;;38.90;58.80;38.40;101004;;;;556852;253;23093;-80
2022/08/13 05:57:09;;;;;;;4.80;2.00;;;39.00;58.00;38.50;101011;;;;557488;252;23085;-80
2022/08/13 06:05:10;;;;;;;2.62;1.98;;;39.40;56.90;39.40;101019;;;;561181;249;23126;-80
2022/08/13 06:07:39;;;;;;;3.25;2.10;;;39.90;56.00;39.80;101023;;;;568639;247;23054;-81
2022/08/13 06:10:07;;;;;;;2.50;2.00;;;40.30;55.40;39.90;101017;;;;561427;252;23105;-80
2022/08/13 06:12:38;;;;;;;5.47;2.30;;;40.40;54.30;40.20;101022;;;;560526;252;23128;-81
2022/08/13 06:15:02;;;;;;;3.28;2.08;;;40.70;53.80;40.50;101022;;;;559288;249;23148;-82
2022/08/13 06:17:30;;;;;;;4.55;2.03;;;41.00;53.20;41.00;101025;;;;565506;249;23157;-85
2022/08/13 06:20:01;;;;;;;5.12;2.05;;;41.30;52.80;41.00;101020;;;;566439;249;23077;-82
2022/08/13 06:22:25;;;;;;;2.33;2.05;;;41.50;52.00;41.40;101019;;;;564326;252;24157;-81
2022/08/13 06:24:55;;;;;;;3.65;1.87;;;42.10;51.10;41.70;101018;;;;562667;251;23069;-81
2022/08/13 06:27:27;;;;;;;5.00;2.20;;;42.10;51.10;42.10;101015;;;;554361;257;23108;-82
2022/08/13 06:29:51;;;;;;;8.52;2.15;;;42.40;50.90;42.50;101015;;;;565999;252;23125;-82
2022/08/13 06:32:22;;;;;;;3.15;2.33;;;42.80;50.30;43.00;101013;;;;558091;256;23148;-82
2022/08/13 06:34:53;;;;;;;2.80;2.10;;;43.30;49.70;43.50;101010;;;;566040;248;23102;-81
2022/08/13 06:37:19;;;;;;;6.80;2.30;;;44.00;48.20;43.70;101015;;;;558264;252;23122;-82
2022/08/13 06:39:51;;;;;;;3.15;1.95;;;44.30;47.70;44.10;101017;;;;565442;251;23048;-82
2022/08/13 06:42:17;;;;;;;7.57;2.00;;;44.70;46.60;44.40;101018;;;;562308;250;23105;-81
2022/08/13 06:44:47;;;;;;;2.70;2.00;;;44.60;46.50;44.60;101017;;;;577450;248;23099;-82
2022/08/13 06:47:12;;;;;;;5.55;2.10;;;44.80;44.60;43.90;101009;;;;578689;244;23128;-81
2022/08/13 06:49:40;;;;;;;4.37;2.05;;;44.60;44.70;43.80;101012;;;;573067;248;23135;-80
2022/08/13 06:52:07;;;;;;;3.90;2.37;;;44.40;45.50;44.20;101018;;;;574066;249;23137;-81
2022/08/13 06:54:35;;;;;;;4.85;2.42;;;44.50;45.30;44.20;101019;;;;559377;249;23122;-81
2022/08/13 06:57:03;;;;;;;6.72;2.72;;;44.50;45.40;44.50;101024;;;;573414;244;23103;-80
2022/08/13 06:59:33;;;;;;;3.12;2.80;;;44.80;45.00;44.70;101012;;;;565061;248;23135;-81
2022/08/13 07:02:00;;;;;;;4.10;2.42;;;45.20;44.10;45.00;101018;;;;557575;253;23167;-81
2022/08/13 07:04:29;;;;;;;7.70;2.50;;;45.20;44.10;45.40;101021;;;;570886;248;23137;-81
2022/08/13 07:06:56;;;;;;;3.05;2.50;;;45.60;43.80;45.50;101013;;;;557629;253;23127;-81
2022/08/13 07:09:24;;;;;;;6.10;2.87;;;45.70;43.60;45.40;101018;;;;581430;245;23070;-81
2022/08/13 07:11:52;;;;;;;3.90;3.37;;;45.80;43.30;45.10;101026;;;;589315;243;23164;-81
2022/08/13 07:14:19;;;;;;;5.30;2.30;;;45.70;42.90;45.20;101020;;;;580132;244;23078;-82
2022/08/13 07:16:47;;;;;;;8.07;3.05;;;45.60;41.90;45.50;101022;;;;570275;251;23097;-80
2022/08/13 07:19:15;;;;;;;6.30;2.70;;;45.90;42.50;45.40;101021;;;;573292;250;23124;-81
2022/08/13 07:21:46;;;;;;;5.93;3.17;;;45.90;42.00;45.10;101013;;;;580154;244;23241;-82
2022/08/13 07:24:14;;;;;;;9.88;2.85;;;45.70;41.40;44.90;101021;;;;575815;244;23061;-82
2022/08/13 07:26:42;;;;;;;9.95;2.78;;;45.70;41.40;44.30;101021;;;;575614;244;23087;-82
2022/08/13 07:29:10;;;;;;;7.07;2.95;;;45.20;42.00;44.70;101024;;;;580425;244;35133;-82
2022/08/13 07:31:40;;;;;;;9.68;2.87;;;45.20;41.80;44.60;101016;;;;560376;253;23192;-82
2022/08/13 07:34:09;;;;;;;2.97;2.30;;;45.10;41.60;44.50;101025;;;;584050;243;24125;-83
2022/08/13 07:36:37;;;;;;;4.05;2.53;;;45.30;41.30;44.50;101033;;;;570579;247;23092;-81
2022/08/13 07:39:07;;;;;;;4.85;2.42;;;45.20;41.00;44.30;101034;;;;579264;247;23083;-82
2022/08/13 07:41:45;;;;;;;5.90;2.22;;;45.20;41.30;44.10;101037;;;;578960;247;23122;-81
2022/08/13 07:44:12;;;;;;;6.78;2.55;;;45.00;42.40;44.50;101034;;;;568804;248;23021;-80
2022/08/13 07:46:44;;;;;;;6.43;2.60;;;45.00;42.60;45.20;101037;;;;571717;248;23093;-80
2022/08/13 07:49:13;;;;;;;6.82;2.47;;;45.50;41.40;45.30;101027;;;;569792;248;23147;-81
2022/08/13 07:51:38;;;;;;;7.05;2.65;;;45.90;40.30;44.80;101027;;;;570617;247;23186;-79
2022/08/13 07:54:07;;;;;;;8.05;2.70;;;45.70;40.70;44.60;101033;;;;570338;248;23190;-78
2022/08/13 07:56:37;;;;;;;7.57;2.50;;;45.50;40.40;44.10;101035;;;;570390;248;23163;-78
2022/08/13 07:59:08;;;;;;;5.18;2.25;;;45.00;40.90;43.70;101044;;;;568196;248;23135;-79
2022/08/13 08:01:51;;;;;;;5.28;2.75;;;44.60;41.30;44.00;101033;;;;570377;248;24107;-79
2022/08/13 08:04:19;;;;;;;7.75;2.40;;;44.60;41.60;43.90;101028;;;;565521;248;23109;-79
2022/08/13 08:06:47;;;;;;;4.62;2.67;;;44.70;40.90;44.00;101033;;;;569922;248;23135;-79
2022/08/13 08:09:17;;;;;;;7.05;2.65;;;44.80;41.20;44.30;101035;;;;578620;247;23129;-80
2022/08/13 08:14:32;;;;;;;5.07;2.30;;;45.00;41.20;44.80;101041;;;;578631;248;23211;-79
2022/08/13 08:17:01;;;;;;;6.68;2.33;;;45.80;40.60;45.50;101048;;;;579064;248;23089;-80
2022/08/13 08:19:33;;;;;;;7.43;1.98;;;46.00;39.40;45.50;101036;;;;571162;247;23088;-79
2022/08/13 08:22:03;;;;;;;7.53;2.00;;;46.50;39.20;45.90;101038;;;;580272;246;23138;-78
2022/08/13 08:24:30;;;;;;;3.67;2.60;;;46.50;39.20;45.70;101040;;;;570810;247;23162;-78
2022/08/13 08:27:00;;;;;;;3.05;1.80;;;46.40;39.00;45.30;101038;;;;579802;247;23130;-80
2022/08/13 08:29:26;;;;;;;6.50;1.87;;;45.70;39.50;44.40;101033;;;;571021;247;23095;-80
2022/08/13 08:31:54;;;;;;;4.70;1.90;;;45.60;39.40;44.50;101030;;;;570854;247;23156;-80
2022/08/13 08:34:22;;;;;;;6.55;2.10;;;45.60;39.60;44.90;101036;;;;570747;247;24103;-81
2022/08/13 08:36:49;;;;;;;3.72;2.42;;;45.60;39.60;45.40;101034;;;;570707;247;23082;-82
2022/08/13 08:44:49;;;;;;;2.33;1.77;;;46.60;37.90;45.90;101033;;;;579206;247;23104;-80
2022/08/13 08:47:17;;;;;;;4.78;1.83;;;46.70;38.00;46.00;101038;;;;564659;247;23105;-81
2022/08/13 08:49:45;;;;;;;4.03;1.75;;;46.80;37.80;45.90;101029;;;;574237;247;35224;-78
2022/08/13 08:52:13;;;;;;;2.80;1.77;;;47.00;37.40;45.40;101024;;;;570492;247;23129;-79
2022/08/13 08:54:41;;;;;;;3.87;2.30;;;46.60;38.10;45.40;101026;;;;570616;247;23114;-79
2022/08/13 08:57:13;;;;;;;2.67;1.77;;;46.60;37.00;45.50;101026;;;;570258;247;23174;-79
2022/08/13 08:59:41;;;;;;;2.15;1.58;;;46.60;37.50;44.40;101022;;;;570366;248;23081;-80
2022/08/13 09:02:18;;;;;;;6.70;1.90;;;46.10;37.90;44.80;101026;;;;565378;248;46131;-80
2022/08/13 09:04:54;;;;;;;3.28;1.48;;;46.10;38.40;44.50;101024;;;;570311;247;24441;-80
2022/08/13 09:07:13;;;;;;;3.78;1.42;;;46.10;38.00;44.10;101022;;;;569492;247;23191;-80
2022/08/13 09:09:41;;;;;;;3.65;1.70;;;45.90;38.40;43.80;101026;;;;570347;248;23101;-81
2022/08/13 09:12:12;;;;;;;10.50;2.10;;;45.30;40.10;44.00;101016;;;;570304;247;23094;-79
2022/08/13 09:14:39;;;;;;;8.50;1.80;;;45.60;39.00;44.60;101015;;;;570241;247;24137;-80
2022/08/13 09:17:07;;;;;;;6.28;2.17;;;46.10;38.60;44.80;101023;;;;579072;247;23090;-80
2022/08/13 09:19:37;;;;;;;3.08;2.20;;;46.40;38.30;45.00;101020;;;;570659;247;23078;-80
2022/08/13 09:22:04;;;;;;;5.97;1.92;;;46.40;38.30;44.80;101017;;;;570630;247;23140;-80
2022/08/13 09:24:32;;;;;;;4.53;2.08;;;46.40;38.10;44.90;101013;;;;570646;247;23140;-80
2022/08/13 09:27:00;;;;;;;5.53;2.10;;;46.50;38.10;45.80;101008;;;;579393;247;23096;-81
2022/08/13 09:29:28;;;;;;;4.82;1.85;;;46.90;38.10;46.80;101019;;;;579317;247;23142;-81
2022/08/13 09:31:58;;;;;;;4.45;1.83;;;47.80;37.40;46.90;101012;;;;571504;247;23089;-82
2022/08/13 09:34:26;;;;;;;4.43;2.35;;;48.30;36.50;47.20;101007;;;;571842;247;23079;-80
2022/08/13 09:36:57;;;;;;;7.87;2.30;;;48.50;36.70;47.00;101005;;;;570895;247;24186;-81
2022/08/13 09:39:43;;;;;;;6.35;2.28;;;48.70;36.00;46.70;101010;;;;570735;247;23136;-81
2022/08/13 09:42:14;;;;;;;2.62;1.55;;;48.40;36.20;46.90;101010;;;;570654;247;23159;-81
2022/08/13 09:44:42;;;;;;;5.45;2.10;;;48.40;35.90;46.80;101011;;;;565528;247;35279;-80
2022/08/13 09:47:11;;;;;;;2.45;2.25;;;48.70;35.90;47.00;101002;;;;579361;247;24099;-80
2022/08/13 09:49:39;;;;;;;5.10;2.20;;;49.00;35.50;47.50;101001;;;;570709;247;23132;-80
2022/08/13 09:52:08;;;;;;;5.18;2.12;;;49.20;35.90;47.60;100998;;;;570568;247;23085;-80
2022/08/13 09:54:40;;;;;;;6.75;1.58;;;49.20;35.20;47.50;100989;;;;570884;247;23181;-82
2022/08/13 09:57:04;;;;;;;4.78;1.80;;;49.30;34.60;47.30;100992;;;;570574;247;23095;-80
2022/08/13 09:59:33;;;;;;;3.45;1.80;;;49.10;34.90;46.90;100989;;;;570606;247;23132;-80
2022/08/13 10:02:08;;;;;;;3.20;1.90;;;48.90;34.80;46.90;100988;;;;570746;247;23078;-79
2022/08/13 10:04:33;;;;;;;9.23;2.30;;;48.70;34.90;46.70;100979;;;;570414;247;23098;-79
2022/08/13 10:07:02;;;;;;;3.08;1.95;;;48.50;34.30;46.60;100990;;;;570719;248;23078;-79
2022/08/13 10:09:33;;;;;;;5.12;1.80;;;47.90;34.60;45.80;100980;;;;570549;248;23097;-79
2022/08/13 10:11:59;;;;;;;8.93;2.05;;;47.90;34.60;45.20;100984;;;;576063;248;23138;-79
2022/08/13 10:14:27;;;;;;;2.70;1.70;;;47.50;35.10;44.50;100979;;;;570539;248;23088;-79
2022/08/13 10:16:55;;;;;;;3.95;1.55;;;46.80;35.50;44.20;100976;;;;570459;248;23079;-78
2022/08/13 10:19:22;;;;;;;3.53;1.60;;;46.30;35.90;44.10;100979;;;;570915;247;23081;-79
2022/08/13 10:21:51;;;;;;;6.53;1.73;;;45.90;36.30;44.00;100976;;;;579727;247;23102;-79
2022/08/13 10:24:18;;;;;;;4.65;1.48;;;45.80;36.20;43.20;100975;;;;571254;247;23081;-78
2022/08/13 10:26:46;;;;;;;6.10;1.75;;;45.30;36.60;41.70;100966;;;;580006;247;23128;-79
2022/08/13 10:29:14;;;;;;;3.20;1.50;;;44.10;37.70;40.90;100966;;;;579888;247;23204;-79
2022/08/13 10:31:42;;;;;;;5.15;1.60;;;43.10;38.80;40.10;100964;;;;570711;248;23089;-78
2022/08/13 10:34:11;;;;;;;3.60;1.70;;;41.70;40.80;39.90;100965;;;;570410;248;23111;-78
2022/08/13 10:36:42;;;;;;;6.85;2.03;;;41.50;41.90;39.70;100972;;;;570565;248;23095;-80
2022/08/13 10:39:10;;;;;;;2.30;1.67;;;41.40;41.60;39.20;100964;;;;570468;248;23101;-78
2022/08/13 10:41:35;;;;;;;5.47;2.12;;;41.00;41.90;38.40;100963;;;;567983;248;23116;-78
2022/08/13 10:44:04;;;;;;;3.70;1.70;;;39.30;43.80;37.20;100966;;;;571806;247;23087;-78
2022/08/13 10:46:33;;;;;;;1.90;1.73;;;38.00;45.10;36.10;100956;;;;571643;247;24117;-78
2022/08/13 10:49:00;;;;;;;3.10;2.05;;;38.00;45.10;35.40;100941;;;;571430;247;23089;-79
2022/08/13 10:51:28;;;;;;;1.75;1.70;;;36.90;46.70;34.20;100944;;;;571280;247;23116;-77
2022/08/13 10:54:00;;;;;;;7.10;3.95;;;35.60;48.70;33.40;100958;;;;571055;247;23132;-76
2022/08/13 10:56:24;;;;;;;10.32;4.00;;;34.40;52.30;32.60;100938;;;;571050;247;24114;-76
2022/08/13 10:58:52;;;;;;;2.37;2.15;;;33.50;54.20;31.80;100943;;;;579585;247;23117;-77
2022/08/13 11:01:23;;;;;;;3.28;1.65;;;32.70;55.60;31.30;100936;;;;570926;247;23084;-77
2022/08/13 11:03:48;;;;;;;9.48;2.33;;;31.90;57.60;30.70;100936;;;;570526;247;23117;-77
2022/08/13 11:06:16;;;;;;;3.42;1.90;;;31.20;58.50;29.90;100928;;;;570847;247;23090;-76
2022/08/13 11:08:44;;;;;;;5.65;1.70;;;30.60;60.20;29.30;100920;;;;570718;247;23118;-77
2022/08/13 11:11:15;;;;;;;2.93;1.93;;;29.50;60.80;28.90;100917;;;;570717;247;24099;-78
2022/08/13 11:13:42;;;;;;;2.70;1.53;;;29.10;62.80;28.60;100923;;;;579369;247;23097;-78
2022/08/13 11:16:56;;;;;;;1.90;1.60;;;28.90;64.30;28.40;100924;;;;570729;247;23095;-78
2022/08/13 11:18:38;;;;;;;3.50;1.90;;;28.80;64.20;28.30;100916;;;;570727;248;23103;-78
2022/08/13 11:21:10;;;;;;;2.60;1.90;;;28.60;65.60;28.00;100913;;;;570918;247;23097;-79
2022/08/13 11:23:36;;;;;;;1.90;1.80;;;28.40;66.20;27.90;100923;;;;570740;247;23102;-77
2022/08/13 11:26:05;;;;;;;4.50;1.60;;;28.10;66.40;27.70;100915;;;;570932;247;23099;-79
2022/08/13 11:28:34;;;;;;;7.60;1.80;;;27.90;67.10;27.50;100904;;;;570931;247;23090;-79
2022/08/13 11:31:02;;;;;;;3.60;1.57;;;27.90;67.00;27.40;100915;;;;570796;246;24101;-77
2022/08/13 11:33:30;;;;;;;5.20;2.03;;;27.80;66.80;27.20;100914;;;;570612;248;23100;-78
2022/08/13 11:35:57;;;;;;;3.50;2.00;;;27.70;68.90;27.10;100906;;;;570512;248;24119;-78
2022/08/13 11:38:25;;;;;;;2.97;2.73;;;27.50;70.70;26.90;100912;;;;579209;247;23091;-79
2022/08/13 11:40:56;;;;;;;3.03;2.50;;;27.40;70.30;26.80;100913;;;;579151;247;23104;-78